createdAt,value
2019-05-30T00:00:17.534Z,3.76
2019-05-30T00:01:18.318Z,3.75
2019-05-30T00:02:22.675Z,3.72
2019-05-30T00:03:26.860Z,3.68
2019-05-30T00:04:31.211Z,3.58
2019-05-30T00:05:35.503Z,3.52
2019-05-30T00:06:39.781Z,3.57
2019-05-30T00:07:44.077Z,3.62
2019-05-30T00:08:48.325Z,3.73
2019-05-30T00:09:52.643Z,3.65
2019-05-30T00:10:56.918Z,3.61
2019-05-30T00:12:01.192Z,3.64
2019-05-30T00:13:05.549Z,3.65
2019-05-30T00:14:09.840Z,3.57
2019-05-30T00:15:14.115Z,3.60
2019-05-30T00:16:18.397Z,3.65
2019-05-30T00:17:22.611Z,3.61
2019-05-30T00:18:27.013Z,3.61
2019-05-30T00:19:33.865Z,3.64
2019-05-30T00:20:35.625Z,3.54
2019-05-30T00:21:39.860Z,3.56
2019-05-30T00:22:44.074Z,3.45
2019-05-30T00:23:48.401Z,3.61
2019-05-30T00:24:52.689Z,3.54
2019-05-30T00:25:57.206Z,3.46
2019-05-30T00:27:02.449Z,3.41
2019-05-30T00:28:05.518Z,3.47
2019-05-30T00:29:09.727Z,3.48
2019-05-30T00:30:24.350Z,3.46
2019-05-30T00:31:18.367Z,3.54
2019-05-30T00:32:22.731Z,3.60
2019-05-30T00:33:27.091Z,3.53
2019-05-30T00:34:31.360Z,3.53
2019-05-30T00:35:35.639Z,3.52
2019-05-30T00:36:39.943Z,3.54
2019-05-30T00:37:44.221Z,3.57
2019-05-30T00:38:48.505Z,3.53
2019-05-30T00:39:55.835Z,3.53
2019-05-30T00:41:00.011Z,3.42
2019-05-30T00:42:04.238Z,3.45
2019-05-30T00:43:07.662Z,3.41
2019-05-30T00:44:11.939Z,3.41
2019-05-30T00:45:20.780Z,3.35
2019-05-30T00:46:20.613Z,3.24
2019-05-30T00:47:24.828Z,3.28
2019-05-30T00:48:29.125Z,3.27
2019-05-30T00:49:33.475Z,3.37
2019-05-30T00:50:37.701Z,3.34
2019-05-30T00:51:41.964Z,3.38
2019-05-30T00:52:46.269Z,3.44
2019-05-30T00:53:50.556Z,3.48
2019-05-30T00:54:54.815Z,3.46
2019-05-30T00:55:59.129Z,3.52
2019-05-30T00:57:04.796Z,3.48
2019-05-30T00:58:07.728Z,3.44
2019-05-30T00:59:12.007Z,3.42
2019-05-30T01:00:16.273Z,3.40
2019-05-30T01:01:20.580Z,3.39
2019-05-30T01:02:24.911Z,3.29
2019-05-30T01:03:29.188Z,3.30
2019-05-30T01:04:33.465Z,3.36
2019-05-30T01:05:37.763Z,3.31
2019-05-30T01:06:42.055Z,3.26
2019-05-30T01:07:46.339Z,3.23
2019-05-30T01:08:50.620Z,3.34
2019-05-30T01:09:54.946Z,3.27
2019-05-30T01:10:59.214Z,3.29
2019-05-30T01:12:03.532Z,3.31
2019-05-30T01:13:07.816Z,3.32
2019-05-30T01:14:12.185Z,3.28
2019-05-30T01:15:16.427Z,3.25
2019-05-30T01:16:20.672Z,3.33
2019-05-30T01:17:25.092Z,3.32
2019-05-30T01:18:29.405Z,3.43
2019-05-30T01:19:33.642Z,3.36
2019-05-30T01:20:37.922Z,3.35
2019-05-30T01:21:42.207Z,3.33
2019-05-30T01:22:46.509Z,3.36
2019-05-30T01:23:50.771Z,3.36
2019-05-30T01:24:54.999Z,3.41
2019-05-30T01:25:59.433Z,3.39
2019-05-30T01:27:03.609Z,3.43
2019-05-30T01:28:08.014Z,3.44
2019-05-30T01:29:12.137Z,3.44
2019-05-30T01:30:16.420Z,3.38
2019-05-30T01:31:20.726Z,3.34
2019-05-30T01:32:25.010Z,3.34
2019-05-30T01:33:29.277Z,3.37
2019-05-30T01:34:33.458Z,3.35
2019-05-30T01:35:37.789Z,3.23
2019-05-30T01:36:42.214Z,3.23
2019-05-30T01:37:46.441Z,3.25
2019-05-30T01:38:50.704Z,3.30
2019-05-30T01:39:54.982Z,3.28
2019-05-30T01:40:59.682Z,3.25
2019-05-30T01:42:03.913Z,3.18
2019-05-30T01:43:08.347Z,3.19
2019-05-30T01:44:12.165Z,3.12
2019-05-30T01:45:16.427Z,3.06
2019-05-30T01:46:20.706Z,3.12
2019-05-30T01:47:28.012Z,3.01
2019-05-30T01:48:31.388Z,3.04
2019-05-30T01:49:35.651Z,3.05
2019-05-30T01:50:40.012Z,2.93
2019-05-30T01:51:44.235Z,3.07
2019-05-30T01:52:48.504Z,3.04
2019-05-30T01:53:52.734Z,3.03
2019-05-30T01:54:56.981Z,2.99
2019-05-30T01:56:02.603Z,2.87
2019-05-30T01:57:06.719Z,2.93
2019-05-30T01:58:09.899Z,3.05
2019-05-30T01:59:14.105Z,3.10
2019-05-30T02:00:21.120Z,3.14
2019-05-30T02:01:25.286Z,3.15
2019-05-30T02:02:26.950Z,3.13
2019-05-30T02:03:31.275Z,3.06
2019-05-30T02:04:35.565Z,3.12
2019-05-30T02:05:39.959Z,3.14
2019-05-30T02:06:44.194Z,3.13
2019-05-30T02:07:48.491Z,3.12
2019-05-30T02:08:52.771Z,3.13
2019-05-30T02:09:57.034Z,3.14
2019-05-30T02:11:01.364Z,3.10
2019-05-30T02:12:05.709Z,3.14
2019-05-30T02:13:10.078Z,3.13
2019-05-30T02:14:14.243Z,3.17
2019-05-30T02:15:18.470Z,3.14
2019-05-30T02:16:22.734Z,3.15
2019-05-30T02:17:27.028Z,3.13
2019-05-30T02:18:31.430Z,3.12
2019-05-30T02:19:35.734Z,3.14
2019-05-30T02:20:40.164Z,3.11
2019-05-30T02:21:44.272Z,3.15
2019-05-30T02:22:48.583Z,3.10
2019-05-30T02:23:52.848Z,3.09
2019-05-30T02:24:57.234Z,3.15
2019-05-30T02:26:02.195Z,3.14
2019-05-30T02:27:06.365Z,3.16
2019-05-30T02:28:10.478Z,3.14
2019-05-30T02:29:14.548Z,3.12
2019-05-30T02:30:18.828Z,3.11
2019-05-30T02:31:38.433Z,3.11
2019-05-30T02:32:27.389Z,3.10
2019-05-30T02:33:31.689Z,3.09
2019-05-30T02:34:36.062Z,3.07
2019-05-30T02:35:40.321Z,3.07
2019-05-30T02:36:44.672Z,3.00
2019-05-30T02:37:48.905Z,3.02
2019-05-30T02:38:53.214Z,3.00
2019-05-30T02:40:02.397Z,3.02
2019-05-30T02:41:03.271Z,3.13
2019-05-30T02:42:07.296Z,3.08
2019-05-30T02:43:12.133Z,3.03
2019-05-30T02:44:14.628Z,3.04
2019-05-30T02:45:18.889Z,3.05
2019-05-30T02:46:23.160Z,3.04
2019-05-30T02:47:27.351Z,3.04
2019-05-30T02:48:31.787Z,3.00
2019-05-30T02:49:36.064Z,3.02
2019-05-30T02:50:40.324Z,3.03
2019-05-30T02:51:44.587Z,3.04
2019-05-30T02:52:48.854Z,3.02
2019-05-30T02:53:53.163Z,3.09
2019-05-30T02:54:57.356Z,3.10
2019-05-30T02:56:01.574Z,3.04
2019-05-30T02:57:07.758Z,3.04
2019-05-30T02:58:12.621Z,2.99
2019-05-30T02:59:14.517Z,2.98
2019-05-30T03:00:18.818Z,2.99
2019-05-30T03:01:23.086Z,2.93
2019-05-30T03:02:27.294Z,2.94
2019-05-30T03:03:31.592Z,2.95
2019-05-30T03:04:36.041Z,3.02
2019-05-30T03:05:40.236Z,2.95
2019-05-30T03:06:44.621Z,3.08
2019-05-30T03:07:48.719Z,3.07
2019-05-30T03:08:53.071Z,2.95
2019-05-30T03:09:57.368Z,2.95
2019-05-30T03:11:02.598Z,2.94
2019-05-30T03:12:06.943Z,3.07
2019-05-30T03:13:11.183Z,3.01
2019-05-30T03:14:19.120Z,3.00
2019-05-30T03:15:18.766Z,2.97
2019-05-30T03:16:23.039Z,3.03
2019-05-30T03:17:27.301Z,3.14
2019-05-30T03:18:31.568Z,3.15
2019-05-30T03:19:35.863Z,3.14
2019-05-30T03:20:40.106Z,3.08
2019-05-30T03:21:44.377Z,3.15
2019-05-30T03:22:48.635Z,3.13
2019-05-30T03:23:53.039Z,3.14
2019-05-30T03:24:57.314Z,3.13
2019-05-30T03:26:02.565Z,3.16
2019-05-30T03:27:07.091Z,3.18
2019-05-30T03:28:11.927Z,3.23
2019-05-30T03:29:14.568Z,3.28
2019-05-30T03:30:27.576Z,3.25
2019-05-30T03:31:28.811Z,3.23
2019-05-30T03:33:02.240Z,3.26
2019-05-30T03:33:40.389Z,3.35
2019-05-30T03:34:35.800Z,3.33
2019-05-30T03:35:43.156Z,3.32
2019-05-30T03:36:44.328Z,3.38
2019-05-30T03:37:48.615Z,3.30
2019-05-30T03:38:52.899Z,3.46
2019-05-30T03:39:57.157Z,3.38
2019-05-30T03:41:01.476Z,3.33
2019-05-30T03:42:06.929Z,3.38
2019-05-30T03:43:11.674Z,3.49
2019-05-30T03:44:15.657Z,3.46
2019-05-30T03:45:18.589Z,3.47
2019-05-30T03:46:22.890Z,3.49
2019-05-30T03:47:27.141Z,3.59
2019-05-30T03:48:31.420Z,3.55
2019-05-30T03:49:35.739Z,3.64
2019-05-30T03:50:40.061Z,3.75
2019-05-30T03:51:44.350Z,3.93
2019-05-30T03:52:48.551Z,4.11
2019-05-30T03:53:53.028Z,4.21
2019-05-30T03:54:57.293Z,4.22
2019-05-30T03:56:01.605Z,4.25
2019-05-30T03:57:06.984Z,4.27
2019-05-30T03:58:12.229Z,4.28
2019-05-30T03:59:14.858Z,4.27
2019-05-30T04:00:18.788Z,4.27
2019-05-30T04:01:23.040Z,4.26
2019-05-30T04:02:27.294Z,4.30
2019-05-30T04:03:31.569Z,4.28
2019-05-30T04:04:35.849Z,4.21
2019-05-30T04:05:40.170Z,4.31
2019-05-30T04:06:44.434Z,4.31
2019-05-30T04:07:48.625Z,4.23
2019-05-30T04:08:52.988Z,4.22
2019-05-30T04:09:57.272Z,4.26
2019-05-30T04:11:01.677Z,4.24
2019-05-30T04:12:07.894Z,4.28
2019-05-30T04:13:11.814Z,4.22
2019-05-30T04:14:15.650Z,4.24
2019-05-30T04:15:18.934Z,4.37
2019-05-30T04:16:23.106Z,4.25
2019-05-30T04:17:27.387Z,4.39
2019-05-30T04:18:31.698Z,4.42
2019-05-30T04:19:35.975Z,4.35
2019-05-30T04:20:40.318Z,4.36
2019-05-30T04:21:44.607Z,4.32
2019-05-30T04:22:48.848Z,4.42
2019-05-30T04:23:53.143Z,4.63
2019-05-30T04:24:57.531Z,4.56
2019-05-30T04:26:01.799Z,4.49
2019-05-30T04:27:07.788Z,4.65
2019-05-30T04:28:12.045Z,4.51
2019-05-30T04:29:16.620Z,4.61
2019-05-30T04:30:18.934Z,4.67
2019-05-30T04:31:23.200Z,4.77
2019-05-30T04:32:27.550Z,4.71
2019-05-30T04:33:33.707Z,4.50
2019-05-30T04:34:36.077Z,4.52
2019-05-30T04:35:40.355Z,4.53
2019-05-30T04:36:44.687Z,4.71
2019-05-30T04:37:48.985Z,4.58
2019-05-30T04:38:53.389Z,4.65
2019-05-30T04:39:57.641Z,4.86
2019-05-30T04:41:01.958Z,4.80
2019-05-30T04:42:06.273Z,4.71
2019-05-30T04:43:10.960Z,4.74
2019-05-30T04:44:16.341Z,4.77
2019-05-30T04:45:20.346Z,4.94
2019-05-30T04:46:23.505Z,4.92
2019-05-30T04:47:27.795Z,5.02
2019-05-30T04:48:32.060Z,5.18
2019-05-30T04:49:36.338Z,5.13
2019-05-30T04:50:40.632Z,5.07
2019-05-30T04:51:44.910Z,5.19
2019-05-30T04:52:49.227Z,5.40
2019-05-30T04:53:53.538Z,5.27
2019-05-30T04:54:57.840Z,5.40
2019-05-30T04:56:02.154Z,5.26
2019-05-30T04:57:06.465Z,5.40
2019-05-30T04:58:11.597Z,5.39
2019-05-30T04:59:15.755Z,5.31
2019-05-30T05:00:19.532Z,5.56
2019-05-30T05:01:23.672Z,5.41
2019-05-30T05:02:27.980Z,5.48
2019-05-30T05:03:45.004Z,5.53
2019-05-30T05:04:36.617Z,5.61
2019-05-30T05:05:40.902Z,5.73
2019-05-30T05:06:45.220Z,5.72
2019-05-30T05:07:49.661Z,5.85
2019-05-30T05:08:53.879Z,5.79
2019-05-30T05:09:58.210Z,5.75
2019-05-30T05:11:02.460Z,5.86
2019-05-30T05:12:06.803Z,5.90
2019-05-30T05:13:12.222Z,5.97
2019-05-30T05:14:16.376Z,6.00
2019-05-30T05:15:20.708Z,6.02
2019-05-30T05:16:34.926Z,6.09
2019-05-30T05:17:28.410Z,6.14
2019-05-30T05:18:32.785Z,6.26
2019-05-30T05:19:37.058Z,6.22
2019-05-30T05:20:41.379Z,6.26
2019-05-30T05:21:45.591Z,6.28
2019-05-30T05:22:49.964Z,6.29
2019-05-30T05:23:54.275Z,6.33
2019-05-30T05:24:58.578Z,6.32
2019-05-30T05:26:02.922Z,6.34
2019-05-30T05:27:09.892Z,6.35
2019-05-30T05:28:11.616Z,6.36
2019-05-30T05:29:15.927Z,6.41
2019-05-30T05:30:20.271Z,6.44
2019-05-30T05:31:24.629Z,6.44
2019-05-30T05:32:28.879Z,6.47
2019-05-30T05:33:33.222Z,6.42
2019-05-30T05:34:37.538Z,6.35
2019-05-30T05:35:41.881Z,6.46
2019-05-30T05:36:46.101Z,6.72
2019-05-30T05:37:50.597Z,6.64
2019-05-30T05:38:54.770Z,6.79
2019-05-30T05:39:59.185Z,7.00
2019-05-30T05:41:03.551Z,7.26
2019-05-30T05:42:07.910Z,7.58
2019-05-30T05:43:12.293Z,7.61
2019-05-30T05:44:16.634Z,7.50
2019-05-30T05:45:20.993Z,7.59
2019-05-30T05:46:25.356Z,7.73
2019-05-30T05:47:29.712Z,7.79
2019-05-30T05:48:34.096Z,7.66
2019-05-30T05:49:38.469Z,7.62
2019-05-30T05:50:42.840Z,7.73
2019-05-30T05:51:47.297Z,8.04
2019-05-30T05:52:51.625Z,7.50
2019-05-30T05:53:55.987Z,7.61
2019-05-30T05:55:00.203Z,7.46
2019-05-30T05:56:04.703Z,7.73
2019-05-30T05:57:08.981Z,7.17
2019-05-30T05:58:13.339Z,7.39
2019-05-30T05:59:18.854Z,7.33
2019-05-30T06:00:23.308Z,7.14
2019-05-30T06:01:26.489Z,7.28
2019-05-30T06:02:30.785Z,7.50
2019-05-30T06:03:35.145Z,7.27
2019-05-30T06:04:39.486Z,7.50
2019-05-30T06:05:52.670Z,7.32
2019-05-30T06:06:48.219Z,7.25
2019-05-30T06:07:52.561Z,7.55
2019-05-30T06:08:56.937Z,7.59
2019-05-30T06:10:01.250Z,7.22
2019-05-30T06:11:05.612Z,7.55
2019-05-30T06:12:09.970Z,7.38
2019-05-30T06:13:14.342Z,7.29
2019-05-30T06:14:19.868Z,7.44
2019-05-30T06:15:23.094Z,7.64
2019-05-30T06:16:28.392Z,7.68
2019-05-30T06:17:31.849Z,7.16
2019-05-30T06:18:36.260Z,7.42
2019-05-30T06:19:46.431Z,7.34
2019-05-30T06:20:45.059Z,7.36
2019-05-30T06:21:53.860Z,7.43
2019-05-30T06:22:53.731Z,7.65
2019-05-30T06:23:58.211Z,7.60
2019-05-30T06:25:02.681Z,7.19
2019-05-30T06:26:06.944Z,7.42
2019-05-30T06:27:11.342Z,7.32
2019-05-30T06:28:15.707Z,7.25
2019-05-30T06:29:20.216Z,7.54
2019-05-30T06:30:24.548Z,7.23
2019-05-30T06:31:28.851Z,7.53
2019-05-30T06:32:33.208Z,7.39
2019-05-30T06:33:37.583Z,7.64
2019-05-30T06:34:41.973Z,7.45
2019-05-30T06:35:46.398Z,7.39
2019-05-30T06:36:50.775Z,7.56
2019-05-30T06:37:55.270Z,7.65
2019-05-30T06:38:59.619Z,7.57
2019-05-30T06:40:07.059Z,7.97
2019-05-30T06:41:10.571Z,7.82
2019-05-30T06:42:14.986Z,7.99
2019-05-30T06:43:19.868Z,8.56
2019-05-30T06:44:24.025Z,8.17
2019-05-30T06:45:28.483Z,7.72
2019-05-30T06:46:32.676Z,8.15
2019-05-30T06:47:37.109Z,8.12
2019-05-30T06:48:41.526Z,8.05
2019-05-30T06:49:45.925Z,8.65
2019-05-30T06:50:50.379Z,8.06
2019-05-30T06:51:54.691Z,8.14
2019-05-30T06:52:59.088Z,7.70
2019-05-30T06:54:03.401Z,8.02
2019-05-30T06:55:07.845Z,8.00
2019-05-30T06:56:12.196Z,7.92
2019-05-30T06:57:16.523Z,8.00
2019-05-30T06:58:35.326Z,7.89
2019-05-30T06:59:25.530Z,7.78
2019-05-30T07:00:29.892Z,7.71
2019-05-30T07:01:33.911Z,7.60
2019-05-30T07:02:38.315Z,7.50
2019-05-30T07:03:42.869Z,7.65
2019-05-30T07:04:52.121Z,7.58
2019-05-30T07:05:51.871Z,7.44
2019-05-30T07:06:56.047Z,7.59
2019-05-30T07:08:00.082Z,7.66
2019-05-30T07:09:04.362Z,7.67
2019-05-30T07:10:08.731Z,7.73
2019-05-30T07:11:13.119Z,7.86
2019-05-30T07:12:17.372Z,7.90
2019-05-30T07:13:23.130Z,8.02
2019-05-30T07:14:27.272Z,7.44
2019-05-30T07:15:31.407Z,7.98
2019-05-30T07:16:34.845Z,7.94
2019-05-30T07:17:39.239Z,8.27
2019-05-30T07:18:43.615Z,8.28
2019-05-30T07:19:48.057Z,8.48
2019-05-30T07:20:52.388Z,8.33
2019-05-30T07:21:56.853Z,7.97
2019-05-30T07:23:01.106Z,7.85
2019-05-30T07:24:05.433Z,8.22
2019-05-30T07:25:10.896Z,7.94
2019-05-30T07:26:15.014Z,7.93
2019-05-30T07:27:19.257Z,7.97
2019-05-30T07:28:23.841Z,7.75
2019-05-30T07:29:28.099Z,7.58
2019-05-30T07:30:32.299Z,7.47
2019-05-30T07:31:36.700Z,7.73
2019-05-30T07:32:41.094Z,7.64
2019-05-30T07:33:45.386Z,7.60
2019-05-30T07:35:05.229Z,7.75
2019-05-30T07:35:54.119Z,7.55
2019-05-30T07:36:58.534Z,7.87
2019-05-30T07:38:02.954Z,7.62
2019-05-30T07:39:07.235Z,7.68
2019-05-30T07:40:11.556Z,7.54
2019-05-30T07:41:16.045Z,7.75
2019-05-30T07:42:20.473Z,7.73
2019-05-30T07:43:26.549Z,7.69
2019-05-30T07:44:29.228Z,7.76
2019-05-30T07:45:33.563Z,7.84
2019-05-30T07:46:37.904Z,7.58
2019-05-30T07:47:42.348Z,7.77
2019-05-30T07:48:46.669Z,7.83
2019-05-30T07:49:51.116Z,7.93
2019-05-30T07:50:55.505Z,8.03
2019-05-30T07:51:59.914Z,7.94
2019-05-30T07:53:04.277Z,7.98
2019-05-30T07:54:08.694Z,7.98
2019-05-30T07:55:13.147Z,7.94
2019-05-30T07:56:17.405Z,8.06
2019-05-30T07:57:21.770Z,8.17
2019-05-30T07:58:27.022Z,8.16
2019-05-30T07:59:30.617Z,8.07
2019-05-30T08:00:35.638Z,8.17
2019-05-30T08:01:39.730Z,7.98
2019-05-30T08:02:43.734Z,8.15
2019-05-30T08:03:48.044Z,8.08
2019-05-30T08:04:52.417Z,8.13
2019-05-30T08:05:56.760Z,7.96
2019-05-30T08:07:01.191Z,8.01
2019-05-30T08:08:05.213Z,8.13
2019-05-30T08:09:09.610Z,7.95
2019-05-30T08:10:13.979Z,8.22
2019-05-30T08:11:18.409Z,8.15
2019-05-30T08:12:22.720Z,7.91
2019-05-30T08:13:27.117Z,8.12
2019-05-30T08:14:31.423Z,8.36
2019-05-30T08:15:38.720Z,8.45
2019-05-30T08:16:40.211Z,8.15
2019-05-30T08:17:44.790Z,8.46
2019-05-30T08:18:48.934Z,8.31
2019-05-30T08:19:53.367Z,8.33
2019-05-30T08:20:57.757Z,8.25
2019-05-30T08:22:02.120Z,8.31
2019-05-30T08:23:09.646Z,8.36
2019-05-30T08:24:10.890Z,8.27
2019-05-30T08:25:15.245Z,8.31
2019-05-30T08:26:19.643Z,8.52
2019-05-30T08:27:23.999Z,8.58
2019-05-30T08:28:28.826Z,8.58
2019-05-30T08:29:32.691Z,8.68
2019-05-30T08:30:37.118Z,8.72
2019-05-30T08:31:41.468Z,8.66
2019-05-30T08:32:45.915Z,8.21
2019-05-30T08:33:50.289Z,8.46
2019-05-30T08:34:54.680Z,8.57
2019-05-30T08:35:59.114Z,8.50
2019-05-30T08:37:03.574Z,8.43
2019-05-30T08:38:07.883Z,8.69
2019-05-30T08:39:12.423Z,8.89
2019-05-30T08:40:16.720Z,8.95
2019-05-30T08:41:21.155Z,9.10
2019-05-30T08:42:27.855Z,9.09
2019-05-30T08:43:29.892Z,8.93
2019-05-30T08:44:34.265Z,8.90
2019-05-30T08:45:39.911Z,8.85
2019-05-30T08:46:43.007Z,9.09
2019-05-30T08:47:47.425Z,8.69
2019-05-30T08:48:51.848Z,8.77
2019-05-30T08:49:56.286Z,8.70
2019-05-30T08:51:00.626Z,8.74
2019-05-30T08:52:05.060Z,8.81
2019-05-30T08:53:09.474Z,8.70
2019-05-30T08:54:14.175Z,8.93
2019-05-30T08:55:18.136Z,9.07
2019-05-30T08:56:22.581Z,9.13
2019-05-30T08:57:27.061Z,9.02
2019-05-30T08:58:32.468Z,9.00
2019-05-30T08:59:36.678Z,9.26
2019-05-30T09:00:40.189Z,8.91
2019-05-30T09:01:46.003Z,9.16
2019-05-30T09:02:49.070Z,8.99
2019-05-30T09:03:53.478Z,9.25
2019-05-30T09:04:57.826Z,9.30
2019-05-30T09:06:04.100Z,9.42
2019-05-30T09:07:06.636Z,8.87
2019-05-30T09:08:11.085Z,8.86
2019-05-30T09:09:15.423Z,9.20
2019-05-30T09:10:19.778Z,9.24
2019-05-30T09:11:24.187Z,9.24
2019-05-30T09:12:28.593Z,9.28
2019-05-30T09:13:32.957Z,9.38
2019-05-30T09:14:39.104Z,9.26
2019-05-30T09:15:43.013Z,8.64
2019-05-30T09:16:47.857Z,8.89
2019-05-30T09:17:50.580Z,8.95
2019-05-30T09:18:54.925Z,9.14
2019-05-30T09:19:59.317Z,9.30
2019-05-30T09:21:03.681Z,9.36
2019-05-30T09:22:08.134Z,9.48
2019-05-30T09:23:12.486Z,9.38
2019-05-30T09:24:16.967Z,9.12
2019-05-30T09:25:21.307Z,9.19
2019-05-30T09:26:25.730Z,9.30
2019-05-30T09:27:30.173Z,9.23
2019-05-30T09:28:34.595Z,9.31
2019-05-30T09:29:39.796Z,9.44
2019-05-30T09:30:44.655Z,9.49
2019-05-30T09:31:48.683Z,9.62
2019-05-30T09:32:52.157Z,9.54
2019-05-30T09:33:56.635Z,9.79
2019-05-30T09:35:01.064Z,9.50
2019-05-30T09:36:13.328Z,9.32
2019-05-30T09:37:09.938Z,9.33
2019-05-30T09:38:14.335Z,9.17
2019-05-30T09:39:18.739Z,9.27
2019-05-30T09:40:23.060Z,9.37
2019-05-30T09:41:27.532Z,9.56
2019-05-30T09:42:31.870Z,9.58
2019-05-30T09:43:36.241Z,9.45
2019-05-30T09:44:42.193Z,9.55
2019-05-30T09:45:46.023Z,9.53
2019-05-30T09:46:50.536Z,9.51
2019-05-30T09:47:53.923Z,9.59
2019-05-30T09:48:58.378Z,9.54
2019-05-30T09:50:03.942Z,9.64
2019-05-30T09:51:07.221Z,9.59
2019-05-30T09:52:11.561Z,9.63
2019-05-30T09:53:16.017Z,9.58
2019-05-30T09:54:20.477Z,9.58
2019-05-30T09:55:24.906Z,9.72
2019-05-30T09:56:29.233Z,9.87
2019-05-30T09:57:33.622Z,9.54
2019-05-30T09:58:38.062Z,9.64
2019-05-30T09:59:43.550Z,9.59
2019-05-30T10:00:48.484Z,9.65
2019-05-30T10:01:52.094Z,9.70
2019-05-30T10:02:55.873Z,9.63
2019-05-30T10:04:00.235Z,9.63
2019-05-30T10:05:04.696Z,9.88
2019-05-30T10:06:09.064Z,9.85
2019-05-30T10:07:13.512Z,9.98
2019-05-30T10:08:17.951Z,10.14
2019-05-30T10:09:22.335Z,10.10
2019-05-30T10:10:26.697Z,9.83
2019-05-30T10:11:31.075Z,9.91
2019-05-30T10:12:35.446Z,9.92
2019-05-30T10:13:39.835Z,10.13
2019-05-30T10:14:45.636Z,10.12
2019-05-30T10:15:48.665Z,9.87
2019-05-30T10:16:56.361Z,9.90
2019-05-30T10:17:57.437Z,9.97
2019-05-30T10:19:01.822Z,10.04
2019-05-30T10:20:06.217Z,9.82
2019-05-30T10:21:10.557Z,9.89
2019-05-30T10:22:15.007Z,9.88
2019-05-30T10:23:19.440Z,9.93
2019-05-30T10:24:23.825Z,9.87
2019-05-30T10:25:28.295Z,10.01
2019-05-30T10:26:32.680Z,9.90
2019-05-30T10:27:37.112Z,10.00
2019-05-30T10:28:41.447Z,9.98
2019-05-30T10:29:47.297Z,9.94
2019-05-30T10:30:55.309Z,9.94
2019-05-30T10:31:54.630Z,10.06
2019-05-30T10:32:58.974Z,10.06
2019-05-30T10:34:03.480Z,10.15
2019-05-30T10:35:07.810Z,10.15
2019-05-30T10:36:14.735Z,10.18
2019-05-30T10:37:16.539Z,10.23
2019-05-30T10:38:20.924Z,10.19
2019-05-30T10:39:25.432Z,9.94
2019-05-30T10:40:32.075Z,10.21
2019-05-30T10:41:34.308Z,10.15
2019-05-30T10:42:38.595Z,10.21
2019-05-30T10:43:43.023Z,10.32
2019-05-30T10:44:49.177Z,10.44
2019-05-30T10:45:53.274Z,10.36
2019-05-30T10:46:56.616Z,10.45
2019-05-30T10:48:00.689Z,10.58
2019-05-30T10:49:05.024Z,10.58
2019-05-30T10:50:09.434Z,10.41
2019-05-30T10:51:13.775Z,10.42
2019-05-30T10:52:18.225Z,10.46
2019-05-30T10:53:22.614Z,10.42
2019-05-30T10:54:27.079Z,10.29
2019-05-30T10:55:31.521Z,10.28
2019-05-30T10:56:35.892Z,10.47
2019-05-30T10:57:40.283Z,10.37
2019-05-30T10:58:46.541Z,10.42
2019-05-30T10:59:50.757Z,10.40
2019-05-30T11:00:55.291Z,10.37
2019-05-30T11:01:57.990Z,10.40
2019-05-30T11:03:02.352Z,10.49
2019-05-30T11:04:06.713Z,10.53
2019-05-30T11:05:11.183Z,10.42
2019-05-30T11:06:15.548Z,10.36
2019-05-30T11:07:20.041Z,10.31
2019-05-30T11:08:24.367Z,10.31
2019-05-30T11:09:28.872Z,10.40
2019-05-30T11:10:33.274Z,10.24
2019-05-30T11:11:37.651Z,10.27
2019-05-30T11:12:42.051Z,10.44
2019-05-30T11:13:46.886Z,10.46
2019-05-30T11:14:51.498Z,10.41
2019-05-30T11:15:55.568Z,10.42
2019-05-30T11:16:59.603Z,10.45
2019-05-30T11:18:04.147Z,10.40
2019-05-30T11:19:08.518Z,10.27
2019-05-30T11:20:13.004Z,10.29
2019-05-30T11:21:17.346Z,10.11
2019-05-30T11:22:21.755Z,10.23
2019-05-30T11:23:26.184Z,10.32
2019-05-30T11:24:30.624Z,10.36
2019-05-30T11:25:34.955Z,10.36
2019-05-30T11:26:39.335Z,10.39
2019-05-30T11:27:43.737Z,10.36
2019-05-30T11:28:48.552Z,10.58
2019-05-30T11:29:52.931Z,10.37
2019-05-30T11:30:57.031Z,10.45
2019-05-30T11:32:01.505Z,10.47
2019-05-30T11:33:05.888Z,10.52
2019-05-30T11:34:10.315Z,10.50
2019-05-30T11:35:14.701Z,10.57
2019-05-30T11:36:19.254Z,10.61
2019-05-30T11:37:23.570Z,10.68
2019-05-30T11:38:28.035Z,10.60
2019-05-30T11:39:32.321Z,10.62
2019-05-30T11:40:36.715Z,10.46
2019-05-30T11:41:41.119Z,10.50
2019-05-30T11:42:45.534Z,10.47
2019-05-30T11:43:49.879Z,10.42
2019-05-30T11:44:55.440Z,10.30
2019-05-30T11:45:59.864Z,10.57
2019-05-30T11:47:03.097Z,10.77
2019-05-30T11:48:07.579Z,10.82
2019-05-30T11:49:12.034Z,10.93
2019-05-30T11:50:16.384Z,10.83
2019-05-30T11:51:20.774Z,10.92
2019-05-30T11:52:25.191Z,10.99
2019-05-30T11:53:29.725Z,10.75
2019-05-30T11:54:34.047Z,10.71
2019-05-30T11:55:38.534Z,10.69
2019-05-30T11:56:42.859Z,10.84
2019-05-30T11:57:47.347Z,10.71
2019-05-30T11:58:52.052Z,10.53
2019-05-30T11:59:56.269Z,10.55
2019-05-30T12:01:00.733Z,10.56
2019-05-30T12:02:04.995Z,10.38
2019-05-30T12:03:09.454Z,10.42
2019-05-30T12:04:13.797Z,10.42
2019-05-30T12:05:18.294Z,10.25
2019-05-30T12:06:22.687Z,10.20
2019-05-30T12:07:36.269Z,10.20
2019-05-30T12:08:31.508Z,10.19
2019-05-30T12:09:35.949Z,10.27
2019-05-30T12:10:40.287Z,10.33
2019-05-30T12:11:44.647Z,10.33
2019-05-30T12:12:49.161Z,10.28
2019-05-30T12:13:53.462Z,10.33
2019-05-30T12:14:57.820Z,10.37
2019-05-30T12:16:02.363Z,10.31
2019-05-30T12:17:06.631Z,10.27
2019-05-30T12:18:11.116Z,10.27
2019-05-30T12:19:15.557Z,10.31
2019-05-30T12:20:19.879Z,10.37
2019-05-30T12:21:24.283Z,10.43
2019-05-30T12:22:28.734Z,10.36
2019-05-30T12:23:33.183Z,10.44
2019-05-30T12:24:37.612Z,10.51
2019-05-30T12:25:42.039Z,10.82
2019-05-30T12:26:46.412Z,10.84
2019-05-30T12:27:51.979Z,10.71
2019-05-30T12:28:56.033Z,10.71
2019-05-30T12:30:00.370Z,10.83
2019-05-30T12:31:06.387Z,10.86
2019-05-30T12:32:08.420Z,10.84
2019-05-30T12:33:12.767Z,10.83
2019-05-30T12:34:17.115Z,10.82
2019-05-30T12:35:21.641Z,10.73
2019-05-30T12:36:26.096Z,10.70
2019-05-30T12:37:30.379Z,10.74
2019-05-30T12:38:34.822Z,10.68
2019-05-30T12:39:39.205Z,10.70
2019-05-30T12:40:43.630Z,10.69
2019-05-30T12:41:48.062Z,10.65
2019-05-30T12:42:55.745Z,10.79
2019-05-30T12:43:57.003Z,10.91
2019-05-30T12:45:05.455Z,10.80
2019-05-30T12:46:05.630Z,10.70
2019-05-30T12:47:10.100Z,10.66
2019-05-30T12:48:14.393Z,10.71
2019-05-30T12:49:18.794Z,10.71
2019-05-30T12:50:23.148Z,10.84
2019-05-30T12:51:27.545Z,11.01
2019-05-30T12:52:32.007Z,10.79
2019-05-30T12:53:36.470Z,10.79
2019-05-30T12:54:40.810Z,10.74
2019-05-30T12:55:45.290Z,10.86
2019-05-30T12:56:49.613Z,10.82
2019-05-30T12:57:54.617Z,10.83
2019-05-30T12:58:58.647Z,10.75
2019-05-30T13:00:07.433Z,10.76
2019-05-30T13:01:07.226Z,10.67
2019-05-30T13:02:11.648Z,10.87
2019-05-30T13:03:16.068Z,10.84
2019-05-30T13:04:20.479Z,10.80
2019-05-30T13:05:24.930Z,10.72
2019-05-30T13:06:29.345Z,10.67
2019-05-30T13:07:33.664Z,10.91
2019-05-30T13:08:38.017Z,10.74
2019-05-30T13:09:42.359Z,10.67
2019-05-30T13:10:46.730Z,10.74
2019-05-30T13:11:51.194Z,10.76
2019-05-30T13:12:55.663Z,10.69
2019-05-30T13:14:00.650Z,10.67
2019-05-30T13:15:04.326Z,10.69
2019-05-30T13:16:09.135Z,10.66
2019-05-30T13:17:13.033Z,10.71
2019-05-30T13:18:17.568Z,10.72
2019-05-30T13:19:21.975Z,10.69
2019-05-30T13:20:26.379Z,10.65
2019-05-30T13:21:30.701Z,10.67
2019-05-30T13:22:35.145Z,10.78
2019-05-30T13:23:39.519Z,10.75
2019-05-30T13:24:43.867Z,10.74
2019-05-30T13:25:48.202Z,10.80
2019-05-30T13:26:52.710Z,10.84
2019-05-30T13:27:57.755Z,10.87
2019-05-30T13:29:02.286Z,11.04
2019-05-30T13:30:06.255Z,10.98
2019-05-30T13:31:10.292Z,11.02
2019-05-30T13:32:14.678Z,11.07
2019-05-30T13:33:19.151Z,11.08
2019-05-30T13:34:23.551Z,11.15
2019-05-30T13:35:27.894Z,11.24
2019-05-30T13:36:32.596Z,11.21
2019-05-30T13:37:36.866Z,11.31
2019-05-30T13:38:41.251Z,11.28
2019-05-30T13:39:45.641Z,11.33
2019-05-30T13:40:50.108Z,11.30
2019-05-30T13:41:54.463Z,11.45
2019-05-30T13:42:59.750Z,11.26
2019-05-30T13:44:06.494Z,11.30
2019-05-30T13:45:08.365Z,11.61
2019-05-30T13:46:12.140Z,11.47
2019-05-30T13:47:16.463Z,11.45
2019-05-30T13:48:20.822Z,11.32
2019-05-30T13:49:25.199Z,11.24
2019-05-30T13:50:29.622Z,11.30
2019-05-30T13:51:33.978Z,11.24
2019-05-30T13:52:38.320Z,11.40
2019-05-30T13:53:42.668Z,11.35
2019-05-30T13:54:47.029Z,11.36
2019-05-30T13:55:51.476Z,11.50
2019-05-30T13:56:55.843Z,11.38
2019-05-30T13:58:01.467Z,11.48
2019-05-30T13:59:05.877Z,11.35
2019-05-30T14:00:10.423Z,11.32
2019-05-30T14:01:14.114Z,11.29
2019-05-30T14:02:17.848Z,11.32
2019-05-30T14:03:22.256Z,11.38
2019-05-30T14:04:26.683Z,11.31
2019-05-30T14:05:31.066Z,11.42
2019-05-30T14:06:35.383Z,11.36
2019-05-30T14:07:39.840Z,11.37
2019-05-30T14:08:44.152Z,11.36